createdAt,value
2022-09-07T00:00:53.743Z,12.54
2022-09-07T00:03:21.442Z,12.53
2022-09-07T00:05:50.875Z,12.43
2022-09-07T00:08:20.587Z,12.48
2022-09-07T00:11:02.290Z,12.39
2022-09-07T00:13:32.895Z,12.38
2022-09-07T00:16:05.493Z,12.42
2022-09-07T00:18:33.498Z,12.39
2022-09-07T00:21:09.096Z,12.39
2022-09-07T00:23:38.503Z,12.38
2022-09-07T00:26:08.535Z,12.31
2022-09-07T00:28:37.297Z,12.21
2022-09-07T00:31:09.867Z,12.22
2022-09-07T00:33:37.457Z,12.17
2022-09-07T00:36:04.815Z,12.10
2022-09-07T00:38:32.241Z,12.02
2022-09-07T00:40:59.752Z,11.99
2022-09-07T00:43:33.697Z,12.03
2022-09-07T00:46:02.219Z,12.00
2022-09-07T00:48:46.295Z,11.97
2022-09-07T00:51:20.349Z,11.95
2022-09-07T00:53:55.713Z,11.92
2022-09-07T00:56:26.633Z,11.75
2022-09-07T00:58:53.885Z,11.72
2022-09-07T01:01:22.039Z,11.66
2022-09-07T01:03:52.001Z,11.61
2022-09-07T01:06:26.893Z,11.64
2022-09-07T01:08:56.726Z,11.71
2022-09-07T01:11:24.305Z,11.66
2022-09-07T01:13:54.130Z,11.69
2022-09-07T01:16:46.487Z,11.67
2022-09-07T01:19:39.308Z,11.63
2022-09-07T01:22:29.800Z,11.74
2022-09-07T01:25:09.645Z,11.62
2022-09-07T01:27:56.239Z,11.55
2022-09-07T01:30:24.566Z,11.53
2022-09-07T01:33:27.448Z,11.53
2022-09-07T01:36:04.075Z,11.56
2022-09-07T01:38:55.876Z,11.57
2022-09-07T01:41:33.193Z,11.53
2022-09-07T01:44:19.777Z,11.51
2022-09-07T01:47:20.921Z,11.61
2022-09-07T01:50:06.359Z,11.57
2022-09-07T01:52:47.602Z,11.80
2022-09-07T01:55:24.671Z,11.69
2022-09-07T01:58:13.746Z,11.72
2022-09-07T02:00:46.245Z,11.67
2022-09-07T02:03:25.379Z,11.72
2022-09-07T02:06:02.335Z,11.80
2022-09-07T02:08:38.108Z,11.85
2022-09-07T02:11:11.733Z,11.96
2022-09-07T02:13:59.375Z,11.96
2022-09-07T02:16:32.802Z,11.91
2022-09-07T02:19:05.569Z,11.87
2022-09-07T02:21:42.277Z,11.98
2022-09-07T02:24:43.623Z,12.03
2022-09-07T02:27:24.921Z,12.14
2022-09-07T02:29:52.384Z,12.14
2022-09-07T02:32:19.660Z,12.15
2022-09-07T02:34:47.113Z,12.31
2022-09-07T02:37:17.008Z,12.27
2022-09-07T02:39:44.599Z,12.17
2022-09-07T02:42:11.895Z,12.15
2022-09-07T02:44:41.503Z,12.18
2022-09-07T02:47:17.901Z,12.19
2022-09-07T02:50:01.772Z,12.11
2022-09-07T02:52:44.120Z,12.24
2022-09-07T02:55:32.645Z,11.92
2022-09-07T02:58:18.049Z,11.70
2022-09-07T03:00:56.837Z,11.55
2022-09-07T03:03:57.361Z,11.50
2022-09-07T03:06:31.253Z,11.38
2022-09-07T03:09:04.454Z,11.45
2022-09-07T03:11:32.301Z,11.32
2022-09-07T03:14:17.932Z,11.32
2022-09-07T03:16:50.963Z,11.25
2022-09-07T03:19:18.435Z,11.12
2022-09-07T03:21:46.047Z,11.02
2022-09-07T03:24:13.454Z,11.03
2022-09-07T03:26:45.304Z,10.98
2022-09-07T03:29:13.451Z,10.92
2022-09-07T03:31:41.080Z,10.86
2022-09-07T03:34:08.639Z,10.73
2022-09-07T03:36:36.244Z,10.75
2022-09-07T03:39:05.169Z,10.69
2022-09-07T03:41:32.418Z,10.66
2022-09-07T03:44:07.341Z,10.67
2022-09-07T03:46:35.501Z,10.68
2022-09-07T03:49:03.062Z,10.66
2022-09-07T03:51:31.227Z,10.67
2022-09-07T03:54:00.134Z,10.66
2022-09-07T03:56:27.539Z,10.70
2022-09-07T03:58:55.739Z,10.64
2022-09-07T04:01:25.655Z,10.61
2022-09-07T04:03:54.903Z,10.70
2022-09-07T04:06:23.582Z,10.79
2022-09-07T04:08:50.964Z,10.86
2022-09-07T04:11:19.301Z,10.94
2022-09-07T04:13:46.684Z,10.93
2022-09-07T04:16:17.362Z,11.03
2022-09-07T04:18:45.566Z,11.05
2022-09-07T04:21:14.055Z,11.07
2022-09-07T04:23:43.176Z,11.17
2022-09-07T04:26:34.305Z,11.32
2022-09-07T04:29:02.971Z,11.48
2022-09-07T04:31:31.236Z,11.55
2022-09-07T04:33:58.631Z,11.64
2022-09-07T04:36:26.094Z,11.71
2022-09-07T04:39:01.591Z,11.83
2022-09-07T04:41:31.286Z,11.93
2022-09-07T04:44:00.867Z,11.97
2022-09-07T04:46:34.264Z,12.13
2022-09-07T04:49:05.310Z,12.17
2022-09-07T04:51:33.394Z,12.24
2022-09-07T04:54:02.584Z,12.32
2022-09-07T04:56:30.707Z,12.41
2022-09-07T04:59:00.163Z,12.50
2022-09-07T05:01:28.400Z,12.55
2022-09-07T05:03:56.166Z,12.65
2022-09-07T05:06:24.339Z,12.73
2022-09-07T05:08:54.014Z,12.80
2022-09-07T05:11:28.400Z,12.86
2022-09-07T05:13:57.045Z,13.14
2022-09-07T05:16:25.989Z,13.14
2022-09-07T05:18:58.649Z,13.34
2022-09-07T05:21:28.613Z,13.36
2022-09-07T05:23:58.182Z,13.38
2022-09-07T05:26:28.577Z,13.50
2022-09-07T05:31:43.277Z,13.58
2022-09-07T05:36:58.628Z,13.87
2022-09-07T05:39:27.024Z,13.96
2022-09-07T05:41:54.409Z,14.12
2022-09-07T05:47:09.391Z,14.45
2022-09-07T05:49:36.627Z,14.47
2022-09-07T05:52:03.980Z,14.43
2022-09-07T05:54:31.265Z,14.47
2022-09-07T05:56:58.904Z,14.56
2022-09-07T05:59:26.419Z,14.52
2022-09-07T06:01:53.778Z,14.74
2022-09-07T06:04:21.285Z,14.68
2022-09-07T06:07:17.790Z,14.71
2022-09-07T06:12:24.190Z,14.85
2022-09-07T06:14:51.390Z,14.83
2022-09-07T06:17:18.669Z,14.84
2022-09-07T06:19:45.853Z,14.92
2022-09-07T06:22:13.810Z,14.94
2022-09-07T06:24:41.044Z,14.91
2022-09-07T06:27:08.479Z,14.96
2022-09-07T06:29:35.888Z,15.00
2022-09-07T06:34:50.777Z,15.20
2022-09-07T06:37:17.951Z,15.32
2022-09-07T06:39:45.311Z,15.33
2022-09-07T06:42:12.825Z,15.51
2022-09-07T06:44:43.983Z,15.57
2022-09-07T06:47:11.494Z,15.62
2022-09-07T06:49:38.693Z,15.61
2022-09-07T06:52:05.900Z,15.65
2022-09-07T06:57:20.776Z,15.80
2022-09-07T06:59:48.032Z,15.79
2022-09-07T07:02:15.360Z,15.82
2022-09-07T07:04:43.325Z,15.95
2022-09-07T07:07:14.167Z,16.03
2022-09-07T07:09:42.067Z,16.19
2022-09-07T07:12:10.971Z,16.38
2022-09-07T07:14:43.958Z,16.51
2022-09-07T07:17:12.874Z,16.53
2022-09-07T07:19:40.244Z,16.46
2022-09-07T07:22:36.003Z,16.39
2022-09-07T07:24:56.064Z,16.41
2022-09-07T07:27:23.315Z,16.25
2022-09-07T07:29:50.947Z,16.19
2022-09-07T07:32:18.446Z,16.17
2022-09-07T07:34:45.742Z,16.30
2022-09-07T07:37:12.895Z,16.25
2022-09-07T07:42:27.633Z,16.17
2022-09-07T07:47:43.300Z,16.29
2022-09-07T07:55:45.645Z,15.90
2022-09-07T07:58:13.104Z,15.93
2022-09-07T08:00:53.879Z,16.00
2022-09-07T08:03:23.722Z,16.08
2022-09-07T08:05:51.821Z,16.30
2022-09-07T08:08:22.113Z,16.46
2022-09-07T08:10:50.252Z,16.43
2022-09-07T08:13:19.376Z,16.48
2022-09-07T08:15:46.932Z,16.57
2022-09-07T08:18:16.480Z,16.71
2022-09-07T08:20:44.403Z,16.82
2022-09-07T08:23:12.033Z,16.68
2022-09-07T08:25:48.660Z,16.52
2022-09-07T08:28:15.899Z,16.39
2022-09-07T08:30:43.265Z,16.22
2022-09-07T08:33:10.389Z,16.23
2022-09-07T08:35:38.206Z,16.40
2022-09-07T08:38:05.513Z,16.51
2022-09-07T08:40:36.012Z,16.68
2022-09-07T08:43:22.038Z,16.98
2022-09-07T08:45:54.793Z,17.10
2022-09-07T08:48:31.766Z,17.25
2022-09-07T08:51:09.887Z,17.24
2022-09-07T08:53:46.445Z,17.15
2022-09-07T08:56:23.693Z,17.09
2022-09-07T08:58:56.178Z,16.87
2022-09-07T09:01:33.687Z,17.02
2022-09-07T09:04:18.689Z,17.10
2022-09-07T09:07:01.656Z,17.10
2022-09-07T09:10:07.392Z,17.33
2022-09-07T09:12:57.139Z,17.55
2022-09-07T09:15:32.154Z,17.72
2022-09-07T09:18:22.458Z,17.85
2022-09-07T09:20:58.777Z,17.88
2022-09-07T09:23:36.668Z,17.94
2022-09-07T09:26:14.559Z,18.13
2022-09-07T09:28:42.274Z,18.15
2022-09-07T09:31:26.841Z,18.21
2022-09-07T09:34:08.274Z,18.12
2022-09-07T09:36:42.828Z,18.02
2022-09-07T09:39:38.651Z,18.00
2022-09-07T09:42:12.483Z,17.79
2022-09-07T09:44:41.680Z,17.78
2022-09-07T09:47:30.272Z,17.92
2022-09-07T09:50:01.486Z,17.91
2022-09-07T09:52:45.151Z,17.72
2022-09-07T09:55:40.938Z,17.79
2022-09-07T10:01:34.992Z,18.01
2022-09-07T10:04:30.838Z,18.14
2022-09-07T10:07:05.581Z,18.29
2022-09-07T10:09:39.284Z,18.50
2022-09-07T10:12:08.963Z,18.45
2022-09-07T10:14:42.433Z,18.52
2022-09-07T10:17:19.383Z,18.53
2022-09-07T10:19:46.559Z,18.24
2022-09-07T10:22:36.067Z,18.07
2022-09-07T10:25:34.257Z,17.83
2022-09-07T10:28:11.599Z,17.52
2022-09-07T10:30:59.463Z,17.41
2022-09-07T10:37:01.340Z,17.47
2022-09-07T10:39:36.283Z,17.37
2022-09-07T10:42:09.384Z,17.49
2022-09-07T10:44:52.357Z,17.56
2022-09-07T10:47:25.596Z,17.46
2022-09-07T10:50:43.469Z,17.46
2022-09-07T10:53:40.632Z,17.33
2022-09-07T10:56:32.483Z,17.31
2022-09-07T11:00:07.439Z,17.29
2022-09-07T11:02:26.440Z,17.47
2022-09-07T11:05:11.987Z,17.59
2022-09-07T11:08:15.586Z,17.68
2022-09-07T11:10:51.836Z,17.80
2022-09-07T11:13:25.197Z,17.93
2022-09-07T11:16:02.037Z,18.00
2022-09-07T11:18:47.485Z,18.25
2022-09-07T11:21:56.028Z,18.46
2022-09-07T11:24:41.705Z,18.74
2022-09-07T11:27:38.952Z,18.95
2022-09-07T11:30:25.081Z,19.08
2022-09-07T11:33:03.769Z,19.17
2022-09-07T11:35:45.375Z,19.27
2022-09-07T11:38:37.797Z,19.43
2022-09-07T11:41:10.801Z,19.37
2022-09-07T11:43:46.619Z,19.12
2022-09-07T11:46:39.159Z,18.91
2022-09-07T11:49:32.829Z,18.54
2022-09-07T11:52:20.293Z,18.37
2022-09-07T11:54:57.258Z,18.23
2022-09-07T11:57:42.060Z,18.06
2022-09-07T12:00:20.264Z,18.02
2022-09-07T12:03:20.910Z,18.08
2022-09-07T12:05:49.678Z,18.05
2022-09-07T12:08:35.020Z,18.14
2022-09-07T12:11:08.414Z,18.23
2022-09-07T12:14:12.145Z,18.31
2022-09-07T12:16:59.099Z,18.49
2022-09-07T12:19:28.407Z,18.54
2022-09-07T12:21:58.182Z,18.64
2022-09-07T12:24:51.820Z,18.81
2022-09-07T12:27:22.226Z,18.92
2022-09-07T12:30:12.526Z,19.08
2022-09-07T12:32:57.700Z,19.15
2022-09-07T12:35:28.640Z,19.25
2022-09-07T12:38:03.916Z,19.35
2022-09-07T12:40:37.648Z,19.50
2022-09-07T12:43:17.024Z,19.54
2022-09-07T12:45:44.116Z,19.44
2022-09-07T12:48:11.976Z,19.27
2022-09-07T12:51:03.617Z,18.94
2022-09-07T12:53:57.572Z,18.66
2022-09-07T12:57:28.669Z,18.54
2022-09-07T13:00:12.286Z,18.41
2022-09-07T13:03:49.406Z,18.33
2022-09-07T13:05:58.825Z,18.30
2022-09-07T13:08:42.202Z,18.22
2022-09-07T13:11:38.289Z,18.31
2022-09-07T13:14:15.537Z,18.26
2022-09-07T13:20:18.060Z,18.33
2022-09-07T13:22:45.633Z,18.29
2022-09-07T13:25:24.028Z,18.40
2022-09-07T13:27:59.887Z,18.45
2022-09-07T13:30:48.759Z,18.56
2022-09-07T13:33:25.326Z,18.66
2022-09-07T13:35:57.064Z,18.73
2022-09-07T13:38:24.401Z,18.71
2022-09-07T13:40:54.838Z,18.85
2022-09-07T13:43:24.502Z,18.82
2022-09-07T13:45:54.879Z,18.86
2022-09-07T13:48:31.068Z,18.90
2022-09-07T13:51:10.535Z,18.95
2022-09-07T13:54:28.600Z,19.11
2022-09-07T13:57:35.231Z,19.13
2022-09-07T14:00:02.829Z,19.18
2022-09-07T14:02:34.924Z,19.38
2022-09-07T14:05:03.319Z,19.42
2022-09-07T14:07:31.713Z,19.44
2022-09-07T14:10:10.657Z,19.55
2022-09-07T14:13:08.464Z,19.67
2022-09-07T14:15:42.695Z,19.73
2022-09-07T14:18:29.608Z,19.85
2022-09-07T14:20:57.903Z,19.74
2022-09-07T14:23:32.316Z,19.76
2022-09-07T14:26:26.698Z,19.81
2022-09-07T14:28:57.305Z,19.70
2022-09-07T14:31:25.987Z,19.84
2022-09-07T14:33:56.920Z,19.88
2022-09-07T14:36:48.489Z,19.97
2022-09-07T14:39:18.675Z,20.09
2022-09-07T14:41:46.885Z,20.21
2022-09-07T14:44:31.841Z,20.35
2022-09-07T14:47:01.081Z,20.48
2022-09-07T14:49:28.896Z,20.42
2022-09-07T14:51:56.371Z,20.44
2022-09-07T14:54:33.227Z,20.44
2022-09-07T14:57:28.505Z,20.54
2022-09-07T14:59:57.380Z,20.57
2022-09-07T15:02:33.351Z,20.68
2022-09-07T15:05:23.425Z,20.79
2022-09-07T15:08:01.977Z,20.81
2022-09-07T15:10:35.656Z,20.80
2022-09-07T15:13:06.319Z,20.82
2022-09-07T15:15:41.350Z,20.82
2022-09-07T15:18:54.456Z,20.87
2022-09-07T15:21:23.742Z,20.78
2022-09-07T15:23:52.703Z,20.79
2022-09-07T15:29:18.632Z,20.73
2022-09-07T15:31:59.271Z,20.61
2022-09-07T15:34:28.879Z,20.38
2022-09-07T15:37:00.168Z,20.19
2022-09-07T15:39:30.219Z,20.22
2022-09-07T15:42:00.528Z,20.05
2022-09-07T15:44:45.742Z,19.94
2022-09-07T15:50:00.226Z,19.45
2022-09-07T15:52:28.136Z,19.22
2022-09-07T15:54:59.410Z,19.10
2022-09-07T16:00:15.353Z,18.86
2022-09-07T16:05:31.460Z,18.61
2022-09-07T16:11:05.089Z,18.25
2022-09-07T16:13:33.693Z,18.23
2022-09-07T16:16:02.267Z,18.10
2022-09-07T16:18:32.617Z,18.00
2022-09-07T16:21:12.210Z,17.93
2022-09-07T16:23:42.974Z,17.75
2022-09-07T16:26:12.072Z,17.85
2022-09-07T16:28:41.101Z,17.74
2022-09-07T16:31:15.361Z,17.78
2022-09-07T16:33:42.560Z,17.63
2022-09-07T16:36:14.540Z,17.61
2022-09-07T16:38:46.001Z,17.45
2022-09-07T16:41:26.960Z,17.21
2022-09-07T16:43:54.792Z,17.31
2022-09-07T16:46:35.494Z,17.31
2022-09-07T16:49:03.708Z,17.27
2022-09-07T16:51:30.843Z,17.12
2022-09-07T16:53:59.815Z,17.12
2022-09-07T16:56:29.530Z,17.13
2022-09-07T16:58:59.303Z,17.10
2022-09-07T17:01:32.924Z,17.07
2022-09-07T17:04:02.088Z,17.17
2022-09-07T17:06:31.446Z,17.11
2022-09-07T17:09:01.773Z,17.16
2022-09-07T17:11:34.763Z,17.07
2022-09-07T17:14:02.372Z,16.99
2022-09-07T17:16:32.466Z,17.08
2022-09-07T17:21:53.878Z,17.03
2022-09-07T17:24:21.404Z,17.06
2022-09-07T17:26:48.779Z,16.91
2022-09-07T17:29:16.036Z,17.05
2022-09-07T17:34:31.124Z,16.92
2022-09-07T17:37:00.528Z,16.93
2022-09-07T17:39:28.643Z,16.98
2022-09-07T17:41:56.031Z,16.91
2022-09-07T17:44:23.782Z,16.95
2022-09-07T17:46:51.641Z,16.86
2022-09-07T17:49:19.101Z,16.76
2022-09-07T17:51:46.838Z,16.75
2022-09-07T17:54:17.646Z,16.73
2022-09-07T17:56:47.752Z,16.69
2022-09-07T18:02:03.361Z,16.62
2022-09-07T18:04:31.604Z,16.61
2022-09-07T18:06:58.811Z,16.65
2022-09-07T18:09:26.136Z,16.63
2022-09-07T18:11:53.376Z,16.61
2022-09-07T18:14:20.846Z,16.60
2022-09-07T18:16:49.927Z,16.53
2022-09-07T18:19:18.304Z,16.52
2022-09-07T18:21:48.398Z,16.45
2022-09-07T18:24:21.594Z,16.39
2022-09-07T18:26:52.556Z,16.43
2022-09-07T18:29:37.521Z,16.39
2022-09-07T18:32:09.485Z,16.35
2022-09-07T18:34:40.648Z,16.40
2022-09-07T18:37:08.608Z,16.49
2022-09-07T18:39:36.062Z,16.40
2022-09-07T18:42:03.885Z,16.34
2022-09-07T18:47:27.841Z,16.40
2022-09-07T18:49:56.197Z,16.38
2022-09-07T18:55:10.887Z,16.36
2022-09-07T18:57:39.462Z,16.30
2022-09-07T19:00:17.902Z,16.23
2022-09-07T19:02:49.633Z,16.15
2022-09-07T19:08:04.764Z,15.91
2022-09-07T19:10:38.567Z,15.88
2022-09-07T19:13:05.972Z,15.80
2022-09-07T19:15:37.084Z,15.80
2022-09-07T19:18:06.220Z,15.82
2022-09-07T19:20:34.981Z,15.81
2022-09-07T19:23:03.491Z,15.70
2022-09-07T19:25:30.662Z,15.69
2022-09-07T19:27:58.110Z,15.63
2022-09-07T19:30:25.352Z,15.68
2022-09-07T19:32:52.655Z,15.64
2022-09-07T19:35:19.693Z,15.62
2022-09-07T19:37:48.643Z,15.64
2022-09-07T19:40:19.287Z,15.54
2022-09-07T19:42:47.009Z,15.48
2022-09-07T19:45:15.396Z,15.38
2022-09-07T19:47:42.916Z,15.38
2022-09-07T19:50:10.439Z,15.35
2022-09-07T19:52:37.833Z,15.37
2022-09-07T19:55:05.310Z,15.41
2022-09-07T19:57:33.252Z,15.34
2022-09-07T20:00:00.451Z,15.26
2022-09-07T20:02:27.910Z,15.19
2022-09-07T20:04:55.751Z,15.15
2022-09-07T20:07:23.481Z,15.18
2022-09-07T20:09:52.098Z,15.18
2022-09-07T20:12:19.589Z,15.19
2022-09-07T20:14:46.868Z,15.15
2022-09-07T20:17:14.020Z,15.15
2022-09-07T20:19:41.368Z,15.15
2022-09-07T20:22:08.860Z,15.14
2022-09-07T20:24:36.160Z,15.28
2022-09-07T20:27:03.531Z,15.41
2022-09-07T20:29:31.910Z,15.46
2022-09-07T20:32:00.602Z,15.45
2022-09-07T20:34:28.987Z,15.48
2022-09-07T20:36:57.073Z,15.53
2022-09-07T20:39:24.704Z,15.46
2022-09-07T20:41:52.099Z,15.42
2022-09-07T20:44:19.401Z,15.37
2022-09-07T20:46:46.844Z,15.35
2022-09-07T20:49:14.128Z,15.27
2022-09-07T20:51:42.507Z,15.21
2022-09-07T20:54:10.280Z,15.21
2022-09-07T20:56:39.130Z,15.24
2022-09-07T20:59:07.494Z,15.20
2022-09-07T21:01:35.883Z,15.27
2022-09-07T21:04:04.208Z,15.26
2022-09-07T21:06:31.726Z,15.19
2022-09-07T21:09:00.083Z,15.26
2022-09-07T21:11:31.527Z,15.23
2022-09-07T21:14:07.039Z,15.25
2022-09-07T21:16:35.422Z,15.33
2022-09-07T21:19:05.819Z,15.36
2022-09-07T21:21:41.783Z,15.32
2022-09-07T21:24:20.290Z,15.18
2022-09-07T21:26:49.009Z,15.25
2022-09-07T21:29:23.093Z,15.31
2022-09-07T21:31:52.489Z,15.36
2022-09-07T21:34:19.889Z,15.29
2022-09-07T21:36:47.507Z,15.26
2022-09-07T21:39:15.395Z,15.21
2022-09-07T21:41:43.977Z,15.23
2022-09-07T21:44:15.451Z,15.30
2022-09-07T21:46:43.490Z,15.23
2022-09-07T21:49:11.025Z,15.24
2022-09-07T21:51:38.669Z,15.24
2022-09-07T21:54:05.911Z,15.27
2022-09-07T21:56:33.542Z,15.32
2022-09-07T21:59:02.664Z,15.36
2022-09-07T22:01:31.606Z,15.38
2022-09-07T22:04:01.586Z,15.56
2022-09-07T22:06:30.006Z,15.51
2022-09-07T22:08:58.894Z,15.49
2022-09-07T22:11:28.962Z,15.56
2022-09-07T22:14:02.076Z,15.57
2022-09-07T22:16:30.719Z,15.48
2022-09-07T22:18:58.193Z,15.36
2022-09-07T22:21:28.322Z,15.32
2022-09-07T22:24:01.395Z,15.32
2022-09-07T22:26:35.254Z,15.26
2022-09-07T22:29:02.638Z,15.17
2022-09-07T22:31:32.847Z,15.18
2022-09-07T22:34:02.156Z,15.05
2022-09-07T22:36:35.329Z,14.99
2022-09-07T22:39:05.052Z,14.90
2022-09-07T22:41:34.892Z,14.78
2022-09-07T22:44:02.369Z,14.73
2022-09-07T22:46:31.758Z,14.66
2022-09-07T22:48:59.440Z,14.61
2022-09-07T22:51:27.740Z,14.56
2022-09-07T22:53:56.085Z,14.57
2022-09-07T22:56:26.753Z,14.55
2022-09-07T22:59:00.555Z,14.54
2022-09-07T23:01:29.200Z,14.50
2022-09-07T23:03:56.849Z,14.49
2022-09-07T23:06:36.248Z,14.55
2022-09-07T23:09:09.997Z,14.51
2022-09-07T23:11:37.299Z,14.57
2022-09-07T23:14:07.694Z,14.62
2022-09-07T23:16:35.150Z,14.64
2022-09-07T23:19:02.568Z,14.64
2022-09-07T23:21:30.415Z,14.72
2022-09-07T23:23:59.931Z,14.68
2022-09-07T23:26:29.389Z,14.70
2022-09-07T23:29:01.981Z,14.74
2022-09-07T23:31:31.271Z,14.77
2022-09-07T23:33:59.257Z,14.88
2022-09-07T23:36:26.942Z,14.89
2022-09-07T23:38:56.671Z,14.92
2022-09-07T23:41:27.766Z,14.93
2022-09-07T23:43:56.103Z,14.94
2022-09-07T23:46:23.656Z,14.79
2022-09-07T23:48:51.456Z,14.81
2022-09-07T23:51:23.452Z,14.72
2022-09-07T23:53:52.071Z,14.73
2022-09-07T23:56:20.301Z,14.67
2022-09-07T23:58:47.855Z,14.66
